sensor_id;sensor_type;location;lat;lon;timestamp;temperature;humidity
32139;DHT22;18644;48.700;9.210;2023-11-19T00:02:09;11.60;69.90
32139;DHT22;18644;48.700;9.210;2023-11-19T00:04:37;11.60;70.00
32139;DHT22;18644;48.700;9.210;2023-11-19T00:07:04;11.60;70.00
32139;DHT22;18644;48.700;9.210;2023-11-19T00:09:32;11.60;70.10
32139;DHT22;18644;48.700;9.210;2023-11-19T00:12:02;11.70;70.20
32139;DHT22;18644;48.700;9.210;2023-11-19T00:14:30;11.70;70.20
32139;DHT22;18644;48.700;9.210;2023-11-19T00:16:57;11.70;70.40
32139;DHT22;18644;48.700;9.210;2023-11-19T00:19:25;11.70;70.50
32139;DHT22;18644;48.700;9.210;2023-11-19T00:21:52;11.70;70.60
32139;DHT22;18644;48.700;9.210;2023-11-19T00:24:19;11.70;70.60
32139;DHT22;18644;48.700;9.210;2023-11-19T00:26:46;11.80;70.70
32139;DHT22;18644;48.700;9.210;2023-11-19T00:29:14;11.70;71.50
32139;DHT22;18644;48.700;9.210;2023-11-19T00:31:44;11.80;70.90
32139;DHT22;18644;48.700;9.210;2023-11-19T00:34:11;11.80;70.80
32139;DHT22;18644;48.700;9.210;2023-11-19T00:36:40;11.80;70.90
32139;DHT22;18644;48.700;9.210;2023-11-19T00:39:07;11.90;71.00
32139;DHT22;18644;48.700;9.210;2023-11-19T00:41:34;11.90;70.90
32139;DHT22;18644;48.700;9.210;2023-11-19T00:44:01;11.90;71.80
32139;DHT22;18644;48.700;9.210;2023-11-19T00:46:28;11.90;71.00
32139;DHT22;18644;48.700;9.210;2023-11-19T00:48:55;11.90;71.00
32139;DHT22;18644;48.700;9.210;2023-11-19T00:51:24;11.90;71.10
32139;DHT22;18644;48.700;9.210;2023-11-19T00:53:53;12.00;71.10
32139;DHT22;18644;48.700;9.210;2023-11-19T00:56:21;12.00;71.20
32139;DHT22;18644;48.700;9.210;2023-11-19T00:58:48;12.00;71.20
32139;DHT22;18644;48.700;9.210;2023-11-19T01:01:15;12.00;71.30
32139;DHT22;18644;48.700;9.210;2023-11-19T01:03:42;12.00;71.30
32139;DHT22;18644;48.700;9.210;2023-11-19T01:06:10;12.00;71.30
32139;DHT22;18644;48.700;9.210;2023-11-19T01:08:37;12.10;71.50
32139;DHT22;18644;48.700;9.210;2023-11-19T01:11:06;12.10;71.50
32139;DHT22;18644;48.700;9.210;2023-11-19T01:13:33;12.10;71.50
32139;DHT22;18644;48.700;9.210;2023-11-19T01:16:01;12.10;71.60
32139;DHT22;18644;48.700;9.210;2023-11-19T01:18:28;12.10;71.50
32139;DHT22;18644;48.700;9.210;2023-11-19T01:20:55;12.20;71.60
32139;DHT22;18644;48.700;9.210;2023-11-19T01:23:22;12.20;71.60
32139;DHT22;18644;48.700;9.210;2023-11-19T01:25:49;12.20;71.70
32139;DHT22;18644;48.700;9.210;2023-11-19T01:28:18;12.20;71.70
32139;DHT22;18644;48.700;9.210;2023-11-19T01:30:47;12.20;71.70
32139;DHT22;18644;48.700;9.210;2023-11-19T01:33:17;12.30;71.80
32139;DHT22;18644;48.700;9.210;2023-11-19T01:35:44;12.30;71.80
32139;DHT22;18644;48.700;9.210;2023-11-19T01:38:11;12.30;71.80
32139;DHT22;18644;48.700;9.210;2023-11-19T01:40:38;12.30;71.80
32139;DHT22;18644;48.700;9.210;2023-11-19T01:43:05;12.30;71.90
32139;DHT22;18644;48.700;9.210;2023-11-19T01:45:36;12.40;71.90
32139;DHT22;18644;48.700;9.210;2023-11-19T01:48:03;12.40;72.00
32139;DHT22;18644;48.700;9.210;2023-11-19T01:50:32;12.40;72.00
32139;DHT22;18644;48.700;9.210;2023-11-19T01:52:59;12.40;72.00
32139;DHT22;18644;48.700;9.210;2023-11-19T01:55:27;12.40;72.00
32139;DHT22;18644;48.700;9.210;2023-11-19T01:57:55;12.50;72.20
32139;DHT22;18644;48.700;9.210;2023-11-19T02:00:28;12.50;72.10
32139;DHT22;18644;48.700;9.210;2023-11-19T02:02:57;12.50;72.10
32139;DHT22;18644;48.700;9.210;2023-11-19T02:05:24;12.50;72.10
32139;DHT22;18644;48.700;9.210;2023-11-19T02:07:53;12.50;72.20
32139;DHT22;18644;48.700;9.210;2023-11-19T02:10:20;12.60;72.20
32139;DHT22;18644;48.700;9.210;2023-11-19T02:12:50;12.60;72.30
32139;DHT22;18644;48.700;9.210;2023-11-19T02:15:17;12.60;72.30
32139;DHT22;18644;48.700;9.210;2023-11-19T02:17:45;12.60;72.30
32139;DHT22;18644;48.700;9.210;2023-11-19T02:20:13;12.70;72.40
32139;DHT22;18644;48.700;9.210;2023-11-19T02:22:40;12.70;72.50
32139;DHT22;18644;48.700;9.210;2023-11-19T02:25:12;12.70;72.50
32139;DHT22;18644;48.700;9.210;2023-11-19T02:27:51;12.70;72.50
32139;DHT22;18644;48.700;9.210;2023-11-19T02:30:22;12.70;72.50
32139;DHT22;18644;48.700;9.210;2023-11-19T02:32:52;12.80;72.50
32139;DHT22;18644;48.700;9.210;2023-11-19T02:35:19;12.80;72.60
32139;DHT22;18644;48.700;9.210;2023-11-19T02:37:48;12.90;72.70
32139;DHT22;18644;48.700;9.210;2023-11-19T02:40:15;12.90;72.70
32139;DHT22;18644;48.700;9.210;2023-11-19T02:42:43;12.90;72.80
32139;DHT22;18644;48.700;9.210;2023-11-19T02:45:11;12.90;72.80
32139;DHT22;18644;48.700;9.210;2023-11-19T02:47:40;13.00;72.90
32139;DHT22;18644;48.700;9.210;2023-11-19T02:50:08;13.00;72.90
32139;DHT22;18644;48.700;9.210;2023-11-19T02:52:40;13.00;72.90
32139;DHT22;18644;48.700;9.210;2023-11-19T02:55:07;13.10;73.00
32139;DHT22;18644;48.700;9.210;2023-11-19T02:57:38;13.10;73.00
32139;DHT22;18644;48.700;9.210;2023-11-19T03:00:07;13.10;73.00
32139;DHT22;18644;48.700;9.210;2023-11-19T03:02:40;13.10;73.10
32139;DHT22;18644;48.700;9.210;2023-11-19T03:05:11;13.10;73.00
32139;DHT22;18644;48.700;9.210;2023-11-19T03:07:40;13.20;73.00
32139;DHT22;18644;48.700;9.210;2023-11-19T03:10:09;13.20;73.00
32139;DHT22;18644;48.700;9.210;2023-11-19T03:12:39;13.20;73.00
32139;DHT22;18644;48.700;9.210;2023-11-19T03:15:07;13.30;73.00
32139;DHT22;18644;48.700;9.210;2023-11-19T03:17:36;13.30;73.80
32139;DHT22;18644;48.700;9.210;2023-11-19T03:20:08;13.30;73.10
32139;DHT22;18644;48.700;9.210;2023-11-19T03:22:39;13.40;73.20
32139;DHT22;18644;48.700;9.210;2023-11-19T03:25:07;13.30;73.00
32139;DHT22;18644;48.700;9.210;2023-11-19T03:27:34;13.40;73.10
32139;DHT22;18644;48.700;9.210;2023-11-19T03:30:02;13.40;73.10
32139;DHT22;18644;48.700;9.210;2023-11-19T03:32:30;13.40;73.10
32139;DHT22;18644;48.700;9.210;2023-11-19T03:34:58;13.40;73.00
32139;DHT22;18644;48.700;9.210;2023-11-19T03:37:27;13.50;73.10
32139;DHT22;18644;48.700;9.210;2023-11-19T03:39:54;13.50;73.10
32139;DHT22;18644;48.700;9.210;2023-11-19T03:42:25;13.50;73.00
32139;DHT22;18644;48.700;9.210;2023-11-19T03:44:52;13.60;73.20
32139;DHT22;18644;48.700;9.210;2023-11-19T03:47:19;13.50;73.10
32139;DHT22;18644;48.700;9.210;2023-11-19T03:49:48;13.60;73.10
32139;DHT22;18644;48.700;9.210;2023-11-19T03:52:16;13.60;73.00
32139;DHT22;18644;48.700;9.210;2023-11-19T03:54:44;13.60;73.00
32139;DHT22;18644;48.700;9.210;2023-11-19T03:57:12;13.60;73.00
32139;DHT22;18644;48.700;9.210;2023-11-19T03:59:41;13.70;73.10
32139;DHT22;18644;48.700;9.210;2023-11-19T04:02:08;13.60;72.90
32139;DHT22;18644;48.700;9.210;2023-11-19T04:04:35;13.70;73.00
32139;DHT22;18644;48.700;9.210;2023-11-19T04:07:03;13.70;72.90
32139;DHT22;18644;48.700;9.210;2023-11-19T04:09:30;13.70;72.90
32139;DHT22;18644;48.700;9.210;2023-11-19T04:12:00;13.70;72.90
32139;DHT22;18644;48.700;9.210;2023-11-19T04:14:27;13.70;72.90
32139;DHT22;18644;48.700;9.210;2023-11-19T04:16:54;13.70;72.80
32139;DHT22;18644;48.700;9.210;2023-11-19T04:19:22;13.70;72.80
32139;DHT22;18644;48.700;9.210;2023-11-19T04:21:50;13.70;72.90
32139;DHT22;18644;48.700;9.210;2023-11-19T04:24:17;13.70;72.80
32139;DHT22;18644;48.700;9.210;2023-11-19T04:26:45;13.80;72.90
32139;DHT22;18644;48.700;9.210;2023-11-19T04:29:16;13.80;72.90
32139;DHT22;18644;48.700;9.210;2023-11-19T04:31:45;13.80;72.90
32139;DHT22;18644;48.700;9.210;2023-11-19T04:34:13;13.80;72.80
32139;DHT22;18644;48.700;9.210;2023-11-19T04:36:40;13.80;72.90
32139;DHT22;18644;48.700;9.210;2023-11-19T04:39:07;13.80;72.80
32139;DHT22;18644;48.700;9.210;2023-11-19T04:41:45;13.80;72.80
32139;DHT22;18644;48.700;9.210;2023-11-19T04:44:16;13.90;73.00
32139;DHT22;18644;48.700;9.210;2023-11-19T04:46:43;13.80;72.80
32139;DHT22;18644;48.700;9.210;2023-11-19T04:49:11;13.80;72.80
32139;DHT22;18644;48.700;9.210;2023-11-19T04:51:39;13.90;72.90
32139;DHT22;18644;48.700;9.210;2023-11-19T04:54:07;13.90;73.00
32139;DHT22;18644;48.700;9.210;2023-11-19T04:56:35;13.90;73.00
32139;DHT22;18644;48.700;9.210;2023-11-19T04:59:03;13.90;73.00
32139;DHT22;18644;48.700;9.210;2023-11-19T05:01:32;13.90;73.10
32139;DHT22;18644;48.700;9.210;2023-11-19T05:04:00;14.00;73.20
32139;DHT22;18644;48.700;9.210;2023-11-19T05:06:27;14.00;73.10
32139;DHT22;18644;48.700;9.210;2023-11-19T05:08:55;14.00;73.20
32139;DHT22;18644;48.700;9.210;2023-11-19T05:11:23;14.00;73.10
32139;DHT22;18644;48.700;9.210;2023-11-19T05:13:50;14.00;73.10
32139;DHT22;18644;48.700;9.210;2023-11-19T05:16:17;14.00;73.10
32139;DHT22;18644;48.700;9.210;2023-11-19T05:18:46;14.00;73.10
32139;DHT22;18644;48.700;9.210;2023-11-19T05:21:13;14.00;73.10
32139;DHT22;18644;48.700;9.210;2023-11-19T05:23:40;14.10;74.00
32139;DHT22;18644;48.700;9.210;2023-11-19T05:26:07;14.10;73.20
32139;DHT22;18644;48.700;9.210;2023-11-19T05:28:37;14.10;73.20
32139;DHT22;18644;48.700;9.210;2023-11-19T05:31:05;14.10;73.30
32139;DHT22;18644;48.700;9.210;2023-11-19T05:33:32;14.10;73.20
32139;DHT22;18644;48.700;9.210;2023-11-19T05:36:01;14.10;73.20
32139;DHT22;18644;48.700;9.210;2023-11-19T05:38:29;14.10;73.30
32139;DHT22;18644;48.700;9.210;2023-11-19T05:40:59;14.10;73.20
32139;DHT22;18644;48.700;9.210;2023-11-19T05:43:26;14.10;73.10
32139;DHT22;18644;48.700;9.210;2023-11-19T05:45:52;14.20;73.20
32139;DHT22;18644;48.700;9.210;2023-11-19T05:48:19;14.10;73.20
32139;DHT22;18644;48.700;9.210;2023-11-19T05:50:46;14.20;73.20
32139;DHT22;18644;48.700;9.210;2023-11-19T05:53:16;14.20;73.20
32139;DHT22;18644;48.700;9.210;2023-11-19T05:55:43;14.20;73.20
32139;DHT22;18644;48.700;9.210;2023-11-19T05:58:15;14.20;73.20
32139;DHT22;18644;48.700;9.210;2023-11-19T06:00:42;14.20;73.10
32139;DHT22;18644;48.700;9.210;2023-11-19T06:03:09;14.30;73.10
32139;DHT22;18644;48.700;9.210;2023-11-19T06:05:36;14.30;73.10
32139;DHT22;18644;48.700;9.210;2023-11-19T06:08:03;14.30;73.10
32139;DHT22;18644;48.700;9.210;2023-11-19T06:10:33;14.30;73.10
32139;DHT22;18644;48.700;9.210;2023-11-19T06:13:01;14.30;73.10
32139;DHT22;18644;48.700;9.210;2023-11-19T06:15:33;14.30;73.10
32139;DHT22;18644;48.700;9.210;2023-11-19T06:18:00;14.30;73.10
32139;DHT22;18644;48.700;9.210;2023-11-19T06:20:31;14.30;73.00
32139;DHT22;18644;48.700;9.210;2023-11-19T06:22:59;14.40;73.00
32139;DHT22;18644;48.700;9.210;2023-11-19T06:25:26;14.30;72.90
32139;DHT22;18644;48.700;9.210;2023-11-19T06:27:54;14.40;73.00
32139;DHT22;18644;48.700;9.210;2023-11-19T06:30:22;14.40;73.10
32139;DHT22;18644;48.700;9.210;2023-11-19T06:32:49;14.40;73.10
32139;DHT22;18644;48.700;9.210;2023-11-19T06:35:18;14.40;73.10
32139;DHT22;18644;48.700;9.210;2023-11-19T06:37:45;14.40;73.10
32139;DHT22;18644;48.700;9.210;2023-11-19T06:40:13;14.40;73.10
32139;DHT22;18644;48.700;9.210;2023-11-19T06:42:41;14.30;73.10
32139;DHT22;18644;48.700;9.210;2023-11-19T06:45:09;14.40;73.20
32139;DHT22;18644;48.700;9.210;2023-11-19T06:47:36;14.30;73.20
32139;DHT22;18644;48.700;9.210;2023-11-19T06:50:04;14.30;73.20
32139;DHT22;18644;48.700;9.210;2023-11-19T06:52:32;14.40;73.30
32139;DHT22;18644;48.700;9.210;2023-11-19T06:54:59;14.40;73.40
32139;DHT22;18644;48.700;9.210;2023-11-19T06:57:26;14.40;73.40
32139;DHT22;18644;48.700;9.210;2023-11-19T06:59:55;14.40;73.40
32139;DHT22;18644;48.700;9.210;2023-11-19T07:02:23;14.40;73.40
32139;DHT22;18644;48.700;9.210;2023-11-19T07:04:50;14.40;74.20
32139;DHT22;18644;48.700;9.210;2023-11-19T07:07:17;14.40;73.40
32139;DHT22;18644;48.700;9.210;2023-11-19T07:09:45;14.40;73.50
32139;DHT22;18644;48.700;9.210;2023-11-19T07:12:13;14.40;73.50
32139;DHT22;18644;48.700;9.210;2023-11-19T07:14:41;14.50;73.50
32139;DHT22;18644;48.700;9.210;2023-11-19T07:17:08;14.50;73.50
32139;DHT22;18644;48.700;9.210;2023-11-19T07:19:37;14.50;73.50
32139;DHT22;18644;48.700;9.210;2023-11-19T07:22:04;14.50;73.50
32139;DHT22;18644;48.700;9.210;2023-11-19T07:24:32;14.50;73.40
32139;DHT22;18644;48.700;9.210;2023-11-19T07:27:00;14.50;73.30
32139;DHT22;18644;48.700;9.210;2023-11-19T07:29:29;14.50;73.30
32139;DHT22;18644;48.700;9.210;2023-11-19T07:31:57;14.50;73.40
32139;DHT22;18644;48.700;9.210;2023-11-19T07:34:24;14.50;73.30
32139;DHT22;18644;48.700;9.210;2023-11-19T07:36:52;14.60;73.40
32139;DHT22;18644;48.700;9.210;2023-11-19T07:39:20;14.60;73.40
32139;DHT22;18644;48.700;9.210;2023-11-19T07:41:47;14.60;73.40
32139;DHT22;18644;48.700;9.210;2023-11-19T07:44:14;14.60;73.40
32139;DHT22;18644;48.700;9.210;2023-11-19T07:46:42;14.60;73.40
32139;DHT22;18644;48.700;9.210;2023-11-19T07:49:10;14.60;73.50
32139;DHT22;18644;48.700;9.210;2023-11-19T07:51:37;14.60;73.50
32139;DHT22;18644;48.700;9.210;2023-11-19T07:54:06;14.60;73.40
32139;DHT22;18644;48.700;9.210;2023-11-19T07:56:33;14.60;74.20
32139;DHT22;18644;48.700;9.210;2023-11-19T07:59:00;14.60;73.50
32139;DHT22;18644;48.700;9.210;2023-11-19T08:01:27;14.60;73.50
32139;DHT22;18644;48.700;9.210;2023-11-19T08:03:54;14.60;73.50
32139;DHT22;18644;48.700;9.210;2023-11-19T08:06:21;14.60;73.60
32139;DHT22;18644;48.700;9.210;2023-11-19T08:08:48;14.70;73.60
32139;DHT22;18644;48.700;9.210;2023-11-19T08:11:19;14.70;73.70
32139;DHT22;18644;48.700;9.210;2023-11-19T08:13:46;14.70;73.70
32139;DHT22;18644;48.700;9.210;2023-11-19T08:16:13;14.70;73.70
32139;DHT22;18644;48.700;9.210;2023-11-19T08:18:42;14.70;73.80
32139;DHT22;18644;48.700;9.210;2023-11-19T08:21:09;14.70;73.80
32139;DHT22;18644;48.700;9.210;2023-11-19T08:23:36;14.80;73.80
32139;DHT22;18644;48.700;9.210;2023-11-19T08:26:04;14.80;73.90
32139;DHT22;18644;48.700;9.210;2023-11-19T08:28:32;14.80;74.00
32139;DHT22;18644;48.700;9.210;2023-11-19T08:31:00;14.80;74.10
32139;DHT22;18644;48.700;9.210;2023-11-19T08:33:27;14.90;74.20
32139;DHT22;18644;48.700;9.210;2023-11-19T08:35:54;14.90;74.10
32139;DHT22;18644;48.700;9.210;2023-11-19T08:38:22;15.00;75.20
32139;DHT22;18644;48.700;9.210;2023-11-19T08:40:49;15.00;74.70
32139;DHT22;18644;48.700;9.210;2023-11-19T08:43:18;15.10;75.00
32139;DHT22;18644;48.700;9.210;2023-11-19T08:45:46;15.20;75.20
32139;DHT22;18644;48.700;9.210;2023-11-19T08:48:13;15.30;75.50
32139;DHT22;18644;48.700;9.210;2023-11-19T08:50:40;15.50;75.60
32139;DHT22;18644;48.700;9.210;2023-11-19T08:53:07;15.60;75.30
32139;DHT22;18644;48.700;9.210;2023-11-19T08:55:34;15.70;74.80
32139;DHT22;18644;48.700;9.210;2023-11-19T08:58:02;15.80;74.40
32139;DHT22;18644;48.700;9.210;2023-11-19T09:00:29;15.80;74.00
32139;DHT22;18644;48.700;9.210;2023-11-19T09:02:59;15.90;73.90
32139;DHT22;18644;48.700;9.210;2023-11-19T09:05:26;15.90;73.80
32139;DHT22;18644;48.700;9.210;2023-11-19T09:07:53;16.00;73.70
32139;DHT22;18644;48.700;9.210;2023-11-19T09:10:20;16.00;73.60
32139;DHT22;18644;48.700;9.210;2023-11-19T09:12:47;16.10;73.70
32139;DHT22;18644;48.700;9.210;2023-11-19T09:15:14;16.20;73.80
32139;DHT22;18644;48.700;9.210;2023-11-19T09:17:41;16.30;73.70
32139;DHT22;18644;48.700;9.210;2023-11-19T09:20:10;16.30;73.40
32139;DHT22;18644;48.700;9.210;2023-11-19T09:22:40;16.40;73.30
32139;DHT22;18644;48.700;9.210;2023-11-19T09:25:08;16.40;73.20
32139;DHT22;18644;48.700;9.210;2023-11-19T09:27:43;16.50;73.30
32139;DHT22;18644;48.700;9.210;2023-11-19T09:30:10;16.50;73.20
32139;DHT22;18644;48.700;9.210;2023-11-19T09:32:38;16.60;73.00
32139;DHT22;18644;48.700;9.210;2023-11-19T09:35:06;16.60;72.90
32139;DHT22;18644;48.700;9.210;2023-11-19T09:37:33;16.70;72.80
32139;DHT22;18644;48.700;9.210;2023-11-19T09:40:00;16.80;72.60
32139;DHT22;18644;48.700;9.210;2023-11-19T09:42:27;16.80;72.80
32139;DHT22;18644;48.700;9.210;2023-11-19T09:44:56;16.90;72.90
32139;DHT22;18644;48.700;9.210;2023-11-19T09:47:25;17.00;73.20
32139;DHT22;18644;48.700;9.210;2023-11-19T09:49:55;17.10;73.10
32139;DHT22;18644;48.700;9.210;2023-11-19T09:52:22;17.20;72.60
32139;DHT22;18644;48.700;9.210;2023-11-19T09:54:50;17.20;72.40
32139;DHT22;18644;48.700;9.210;2023-11-19T09:57:17;17.30;72.60
32139;DHT22;18644;48.700;9.210;2023-11-19T09:59:45;17.40;72.70
32139;DHT22;18644;48.700;9.210;2023-11-19T10:02:14;17.50;72.40
32139;DHT22;18644;48.700;9.210;2023-11-19T10:04:42;17.60;72.10
32139;DHT22;18644;48.700;9.210;2023-11-19T10:07:10;17.70;71.70
32139;DHT22;18644;48.700;9.210;2023-11-19T10:09:37;17.70;71.30
32139;DHT22;18644;48.700;9.210;2023-11-19T10:12:04;17.90;71.30
32139;DHT22;18644;48.700;9.210;2023-11-19T10:14:48;17.90;71.50
32139;DHT22;18644;48.700;9.210;2023-11-19T10:17:18;18.00;71.60
32139;DHT22;18644;48.700;9.210;2023-11-19T10:19:45;18.20;71.70
32139;DHT22;18644;48.700;9.210;2023-11-19T10:22:12;18.30;71.70
32139;DHT22;18644;48.700;9.210;2023-11-19T10:24:42;18.40;71.50
32139;DHT22;18644;48.700;9.210;2023-11-19T10:27:08;18.50;71.40
32139;DHT22;18644;48.700;9.210;2023-11-19T10:29:36;18.60;71.30
32139;DHT22;18644;48.700;9.210;2023-11-19T10:32:04;18.80;71.20
32139;DHT22;18644;48.700;9.210;2023-11-19T10:34:33;18.90;70.90
32139;DHT22;18644;48.700;9.210;2023-11-19T10:37:03;19.00;70.40
32139;DHT22;18644;48.700;9.210;2023-11-19T10:39:51;19.20;70.00
32139;DHT22;18644;48.700;9.210;2023-11-19T10:42:20;19.30;69.10
32139;DHT22;18644;48.700;9.210;2023-11-19T10:44:48;19.40;69.40
32139;DHT22;18644;48.700;9.210;2023-11-19T10:47:15;19.40;68.70
32139;DHT22;18644;48.700;9.210;2023-11-19T10:49:47;19.50;67.80
32139;DHT22;18644;48.700;9.210;2023-11-19T10:52:17;19.60;67.20
32139;DHT22;18644;48.700;9.210;2023-11-19T10:54:49;19.70;66.80
32139;DHT22;18644;48.700;9.210;2023-11-19T10:57:20;19.70;66.30
32139;DHT22;18644;48.700;9.210;2023-11-19T10:59:49;19.70;65.80
32139;DHT22;18644;48.700;9.210;2023-11-19T11:02:21;19.70;65.50
32139;DHT22;18644;48.700;9.210;2023-11-19T11:04:53;19.70;64.80
32139;DHT22;18644;48.700;9.210;2023-11-19T11:07:22;19.60;65.00
32139;DHT22;18644;48.700;9.210;2023-11-19T11:09:51;19.60;65.30
32139;DHT22;18644;48.700;9.210;2023-11-19T11:12:22;19.60;65.40
32139;DHT22;18644;48.700;9.210;2023-11-19T11:14:50;19.60;65.30
32139;DHT22;18644;48.700;9.210;2023-11-19T11:17:19;19.60;65.10
32139;DHT22;18644;48.700;9.210;2023-11-19T11:19:46;19.60;64.70
32139;DHT22;18644;48.700;9.210;2023-11-19T11:22:16;19.60;64.20
32139;DHT22;18644;48.700;9.210;2023-11-19T11:28:02;19.60;64.10
32139;DHT22;18644;48.700;9.210;2023-11-19T11:30:43;19.50;63.00
32139;DHT22;18644;48.700;9.210;2023-11-19T11:33:26;19.40;63.20
32139;DHT22;18644;48.700;9.210;2023-11-19T11:36:09;19.40;62.70
32139;DHT22;18644;48.700;9.210;2023-11-19T11:38:42;19.30;62.30
32139;DHT22;18644;48.700;9.210;2023-11-19T11:41:15;19.20;62.40
32139;DHT22;18644;48.700;9.210;2023-11-19T11:43:45;19.20;61.80
32139;DHT22;18644;48.700;9.210;2023-11-19T11:49:28;19.00;62.10
32139;DHT22;18644;48.700;9.210;2023-11-19T11:52:01;18.90;62.40
32139;DHT22;18644;48.700;9.210;2023-11-19T11:54:30;18.90;62.30
32139;DHT22;18644;48.700;9.210;2023-11-19T11:57:07;18.90;62.80
32139;DHT22;18644;48.700;9.210;2023-11-19T11:59:45;18.90;62.70
32139;DHT22;18644;48.700;9.210;2023-11-19T12:02:14;18.90;62.80
32139;DHT22;18644;48.700;9.210;2023-11-19T12:04:43;19.00;63.50
32139;DHT22;18644;48.700;9.210;2023-11-19T12:07:14;19.00;63.40
32139;DHT22;18644;48.700;9.210;2023-11-19T12:09:48;19.00;63.20
32139;DHT22;18644;48.700;9.210;2023-11-19T12:12:20;19.10;62.70
32139;DHT22;18644;48.700;9.210;2023-11-19T12:15:01;19.20;62.90
32139;DHT22;18644;48.700;9.210;2023-11-19T12:17:37;19.20;62.70
32139;DHT22;18644;48.700;9.210;2023-11-19T12:20:10;19.30;62.30
32139;DHT22;18644;48.700;9.210;2023-11-19T12:22:38;19.40;61.80
32139;DHT22;18644;48.700;9.210;2023-11-19T12:25:08;19.40;61.30
32139;DHT22;18644;48.700;9.210;2023-11-19T12:27:35;19.40;60.70
32139;DHT22;18644;48.700;9.210;2023-11-19T12:30:04;19.30;60.40
32139;DHT22;18644;48.700;9.210;2023-11-19T12:32:38;19.30;60.00
32139;DHT22;18644;48.700;9.210;2023-11-19T12:35:07;19.30;59.80
32139;DHT22;18644;48.700;9.210;2023-11-19T12:37:39;19.20;60.10
32139;DHT22;18644;48.700;9.210;2023-11-19T12:40:16;19.10;59.90
32139;DHT22;18644;48.700;9.210;2023-11-19T12:42:44;19.10;59.70
32139;DHT22;18644;48.700;9.210;2023-11-19T12:45:11;19.10;60.00
32139;DHT22;18644;48.700;9.210;2023-11-19T12:47:39;19.10;60.60
32139;DHT22;18644;48.700;9.210;2023-11-19T12:50:07;19.20;60.40
32139;DHT22;18644;48.700;9.210;2023-11-19T12:52:35;19.10;59.80
32139;DHT22;18644;48.700;9.210;2023-11-19T12:55:02;19.20;60.00
32139;DHT22;18644;48.700;9.210;2023-11-19T12:57:42;19.20;60.20
32139;DHT22;18644;48.700;9.210;2023-11-19T13:00:18;19.30;59.80
32139;DHT22;18644;48.700;9.210;2023-11-19T13:02:48;19.30;59.80
32139;DHT22;18644;48.700;9.210;2023-11-19T13:05:23;19.30;59.90
32139;DHT22;18644;48.700;9.210;2023-11-19T13:07:57;19.30;59.70
32139;DHT22;18644;48.700;9.210;2023-11-19T13:10:25;19.40;59.60
32139;DHT22;18644;48.700;9.210;2023-11-19T13:13:11;19.40;58.50
32139;DHT22;18644;48.700;9.210;2023-11-19T13:15:38;19.40;57.60
32139;DHT22;18644;48.700;9.210;2023-11-19T13:18:05;19.40;57.90
32139;DHT22;18644;48.700;9.210;2023-11-19T13:20:32;19.30;58.20
32139;DHT22;18644;48.700;9.210;2023-11-19T13:23:00;19.30;57.40
32139;DHT22;18644;48.700;9.210;2023-11-19T13:25:28;19.20;57.10
32139;DHT22;18644;48.700;9.210;2023-11-19T13:27:56;19.10;57.00
32139;DHT22;18644;48.700;9.210;2023-11-19T13:30:25;19.10;57.20
32139;DHT22;18644;48.700;9.210;2023-11-19T13:32:53;19.10;57.40
32139;DHT22;18644;48.700;9.210;2023-11-19T13:35:20;19.10;57.40
32139;DHT22;18644;48.700;9.210;2023-11-19T13:37:48;19.10;57.20
32139;DHT22;18644;48.700;9.210;2023-11-19T13:40:15;19.00;57.00
32139;DHT22;18644;48.700;9.210;2023-11-19T13:42:42;19.00;56.90
32139;DHT22;18644;48.700;9.210;2023-11-19T13:45:10;19.00;56.90
32139;DHT22;18644;48.700;9.210;2023-11-19T13:47:41;18.90;56.70
32139;DHT22;18644;48.700;9.210;2023-11-19T13:50:09;18.80;56.50
32139;DHT22;18644;48.700;9.210;2023-11-19T13:52:37;18.80;56.60
32139;DHT22;18644;48.700;9.210;2023-11-19T13:55:06;18.70;56.40
32139;DHT22;18644;48.700;9.210;2023-11-19T13:57:34;18.60;56.50
32139;DHT22;18644;48.700;9.210;2023-11-19T14:00:01;18.50;56.60
32139;DHT22;18644;48.700;9.210;2023-11-19T14:02:31;18.40;56.60
32139;DHT22;18644;48.700;9.210;2023-11-19T14:04:59;18.40;56.70
32139;DHT22;18644;48.700;9.210;2023-11-19T14:07:26;18.40;56.70
32139;DHT22;18644;48.700;9.210;2023-11-19T14:09:54;18.30;57.00
32139;DHT22;18644;48.700;9.210;2023-11-19T14:12:20;18.40;57.00
32139;DHT22;18644;48.700;9.210;2023-11-19T14:14:47;18.40;57.00
32139;DHT22;18644;48.700;9.210;2023-11-19T14:17:14;18.40;57.00
32139;DHT22;18644;48.700;9.210;2023-11-19T14:19:42;18.40;57.00
32139;DHT22;18644;48.700;9.210;2023-11-19T14:22:10;18.50;56.80
32139;DHT22;18644;48.700;9.210;2023-11-19T14:24:37;18.50;56.80
32139;DHT22;18644;48.700;9.210;2023-11-19T14:27:06;18.60;56.70
32139;DHT22;18644;48.700;9.210;2023-11-19T14:29:33;18.60;56.50
32139;DHT22;18644;48.700;9.210;2023-11-19T14:32:00;18.60;56.50
32139;DHT22;18644;48.700;9.210;2023-11-19T14:34:28;18.60;56.30
32139;DHT22;18644;48.700;9.210;2023-11-19T14:36:55;18.60;56.00
32139;DHT22;18644;48.700;9.210;2023-11-19T14:39:23;18.60;55.90
32139;DHT22;18644;48.700;9.210;2023-11-19T14:41:50;18.50;55.90
32139;DHT22;18644;48.700;9.210;2023-11-19T14:44:19;18.50;56.10
32139;DHT22;18644;48.700;9.210;2023-11-19T14:46:46;18.50;56.20
32139;DHT22;18644;48.700;9.210;2023-11-19T14:49:14;18.50;56.20
32139;DHT22;18644;48.700;9.210;2023-11-19T14:51:41;18.50;56.20
32139;DHT22;18644;48.700;9.210;2023-11-19T14:54:08;18.40;56.10
32139;DHT22;18644;48.700;9.210;2023-11-19T14:56:36;18.40;56.00
32139;DHT22;18644;48.700;9.210;2023-11-19T14:59:04;18.40;55.80
32139;DHT22;18644;48.700;9.210;2023-11-19T15:01:31;18.30;55.70
32139;DHT22;18644;48.700;9.210;2023-11-19T15:03:58;18.30;55.80
32139;DHT22;18644;48.700;9.210;2023-11-19T15:06:25;18.20;55.80
32139;DHT22;18644;48.700;9.210;2023-11-19T15:08:52;18.20;55.90
32139;DHT22;18644;48.700;9.210;2023-11-19T15:11:20;18.10;56.00
32139;DHT22;18644;48.700;9.210;2023-11-19T15:13:48;18.10;55.90
32139;DHT22;18644;48.700;9.210;2023-11-19T15:16:15;18.00;55.80
32139;DHT22;18644;48.700;9.210;2023-11-19T15:18:48;17.90;55.90
32139;DHT22;18644;48.700;9.210;2023-11-19T15:21:15;17.80;55.80
32139;DHT22;18644;48.700;9.210;2023-11-19T15:23:42;17.70;55.80
32139;DHT22;18644;48.700;9.210;2023-11-19T15:26:09;17.70;55.80
32139;DHT22;18644;48.700;9.210;2023-11-19T15:28:36;17.60;55.90
32139;DHT22;18644;48.700;9.210;2023-11-19T15:31:05;17.50;55.90
32139;DHT22;18644;48.700;9.210;2023-11-19T15:33:32;17.40;55.90
32139;DHT22;18644;48.700;9.210;2023-11-19T15:35:59;17.30;56.00
32139;DHT22;18644;48.700;9.210;2023-11-19T15:38:27;17.20;56.00
32139;DHT22;18644;48.700;9.210;2023-11-19T15:40:54;17.10;56.10
32139;DHT22;18644;48.700;9.210;2023-11-19T15:43:21;17.00;56.10
32139;DHT22;18644;48.700;9.210;2023-11-19T15:45:48;17.00;56.10